sensor_id;sensor_type;location;lat;lon;timestamp;P1;durP1;ratioP1;P2;durP2;ratioP2
33830;SDS011;20137;48.834;8.732;2022-09-29T00:00:10;4.32;;;2.63;;
33830;SDS011;20137;48.834;8.732;2022-09-29T00:02:37;8.77;;;2.83;;
33830;SDS011;20137;48.834;8.732;2022-09-29T00:05:04;5.68;;;2.72;;
33830;SDS011;20137;48.834;8.732;2022-09-29T00:07:30;6.85;;;2.72;;
33830;SDS011;20137;48.834;8.732;2022-09-29T00:09:56;5.60;;;2.40;;
33830;SDS011;20137;48.834;8.732;2022-09-29T00:12:22;5.32;;;2.40;;
33830;SDS011;20137;48.834;8.732;2022-09-29T00:14:48;4.35;;;2.22;;
33830;SDS011;20137;48.834;8.732;2022-09-29T00:17:14;9.93;;;2.53;;
33830;SDS011;20137;48.834;8.732;2022-09-29T00:19:40;6.63;;;2.67;;
33830;SDS011;20137;48.834;8.732;2022-09-29T00:22:06;7.95;;;2.45;;
33830;SDS011;20137;48.834;8.732;2022-09-29T00:24:31;3.83;;;2.20;;
33830;SDS011;20137;48.834;8.732;2022-09-29T00:26:58;4.10;;;2.17;;
33830;SDS011;20137;48.834;8.732;2022-09-29T00:29:24;5.07;;;2.25;;
33830;SDS011;20137;48.834;8.732;2022-09-29T00:31:50;6.82;;;2.38;;
33830;SDS011;20137;48.834;8.732;2022-09-29T00:34:16;5.30;;;2.47;;
33830;SDS011;20137;48.834;8.732;2022-09-29T00:36:42;3.85;;;2.38;;
33830;SDS011;20137;48.834;8.732;2022-09-29T00:39:08;5.53;;;2.47;;
33830;SDS011;20137;48.834;8.732;2022-09-29T00:41:34;6.93;;;2.20;;
33830;SDS011;20137;48.834;8.732;2022-09-29T00:44:06;4.55;;;2.38;;
33830;SDS011;20137;48.834;8.732;2022-09-29T00:47:09;9.02;;;2.63;;
33830;SDS011;20137;48.834;8.732;2022-09-29T00:49:51;4.55;;;2.80;;
33830;SDS011;20137;48.834;8.732;2022-09-29T00:52:29;7.85;;;2.88;;
33830;SDS011;20137;48.834;8.732;2022-09-29T00:55:17;5.30;;;2.78;;
33830;SDS011;20137;48.834;8.732;2022-09-29T01:00:26;9.65;;;3.50;;
33830;SDS011;20137;48.834;8.732;2022-09-29T01:03:13;7.65;;;3.47;;
33830;SDS011;20137;48.834;8.732;2022-09-29T01:05:41;9.90;;;3.47;;
33830;SDS011;20137;48.834;8.732;2022-09-29T01:08:19;7.60;;;3.78;;
33830;SDS011;20137;48.834;8.732;2022-09-29T01:10:50;11.25;;;3.90;;
33830;SDS011;20137;48.834;8.732;2022-09-29T01:13:17;6.50;;;3.33;;
33830;SDS011;20137;48.834;8.732;2022-09-29T01:15:44;10.48;;;3.15;;
33830;SDS011;20137;48.834;8.732;2022-09-29T01:18:10;7.07;;;3.15;;
33830;SDS011;20137;48.834;8.732;2022-09-29T01:20:38;8.68;;;3.08;;
33830;SDS011;20137;48.834;8.732;2022-09-29T01:40:18;6.55;;;2.72;;
33830;SDS011;20137;48.834;8.732;2022-09-29T01:43:20;5.32;;;3.33;;
33830;SDS011;20137;48.834;8.732;2022-09-29T01:48:37;7.30;;;2.70;;
33830;SDS011;20137;48.834;8.732;2022-09-29T01:51:11;7.57;;;2.70;;
33830;SDS011;20137;48.834;8.732;2022-09-29T01:53:48;4.38;;;2.50;;
33830;SDS011;20137;48.834;8.732;2022-09-29T01:56:19;5.60;;;2.35;;
33830;SDS011;20137;48.834;8.732;2022-09-29T02:01:20;5.68;;;2.53;;
33830;SDS011;20137;48.834;8.732;2022-09-29T02:04:08;7.10;;;2.05;;
33830;SDS011;20137;48.834;8.732;2022-09-29T02:06:57;4.20;;;2.20;;
33830;SDS011;20137;48.834;8.732;2022-09-29T02:09:32;8.57;;;2.10;;
33830;SDS011;20137;48.834;8.732;2022-09-29T02:12:03;5.25;;;1.90;;
33830;SDS011;20137;48.834;8.732;2022-09-29T02:14:32;5.13;;;2.55;;
33830;SDS011;20137;48.834;8.732;2022-09-29T02:17:19;9.38;;;2.45;;
33830;SDS011;20137;48.834;8.732;2022-09-29T02:19:49;6.15;;;2.20;;
33830;SDS011;20137;48.834;8.732;2022-09-29T02:22:16;4.38;;;2.35;;
33830;SDS011;20137;48.834;8.732;2022-09-29T02:24:43;6.15;;;2.47;;
33830;SDS011;20137;48.834;8.732;2022-09-29T02:27:09;4.75;;;2.38;;
33830;SDS011;20137;48.834;8.732;2022-09-29T02:29:35;7.10;;;2.60;;
33830;SDS011;20137;48.834;8.732;2022-09-29T02:32:05;3.00;;;1.90;;
33830;SDS011;20137;48.834;8.732;2022-09-29T02:34:34;5.70;;;2.30;;
33830;SDS011;20137;48.834;8.732;2022-09-29T02:37:18;3.85;;;2.20;;
33830;SDS011;20137;48.834;8.732;2022-09-29T02:42:43;4.55;;;2.55;;
33830;SDS011;20137;48.834;8.732;2022-09-29T03:00:08;5.95;;;2.50;;
33830;SDS011;20137;48.834;8.732;2022-09-29T03:02:36;7.18;;;2.50;;
33830;SDS011;20137;48.834;8.732;2022-09-29T03:05:04;5.95;;;2.42;;
33830;SDS011;20137;48.834;8.732;2022-09-29T03:07:32;5.43;;;2.55;;
33830;SDS011;20137;48.834;8.732;2022-09-29T03:09:59;9.23;;;2.90;;
33830;SDS011;20137;48.834;8.732;2022-09-29T03:12:25;4.63;;;2.28;;
33830;SDS011;20137;48.834;8.732;2022-09-29T03:14:51;6.13;;;2.10;;
33830;SDS011;20137;48.834;8.732;2022-09-29T03:17:16;4.82;;;2.42;;
33830;SDS011;20137;48.834;8.732;2022-09-29T03:19:42;5.10;;;2.40;;
33830;SDS011;20137;48.834;8.732;2022-09-29T03:22:08;7.53;;;2.50;;
33830;SDS011;20137;48.834;8.732;2022-09-29T03:24:34;4.72;;;2.38;;
33830;SDS011;20137;48.834;8.732;2022-09-29T03:27:00;9.02;;;3.92;;
33830;SDS011;20137;48.834;8.732;2022-09-29T03:29:26;5.10;;;3.20;;
33830;SDS011;20137;48.834;8.732;2022-09-29T03:31:52;9.05;;;3.47;;
33830;SDS011;20137;48.834;8.732;2022-09-29T03:34:18;5.25;;;2.80;;
33830;SDS011;20137;48.834;8.732;2022-09-29T03:36:44;4.18;;;2.50;;
33830;SDS011;20137;48.834;8.732;2022-09-29T03:39:10;5.07;;;2.17;;
33830;SDS011;20137;48.834;8.732;2022-09-29T03:41:35;10.13;;;3.20;;
33830;SDS011;20137;48.834;8.732;2022-09-29T03:44:04;6.07;;;2.72;;
33830;SDS011;20137;48.834;8.732;2022-09-29T03:46:29;5.38;;;2.58;;
33830;SDS011;20137;48.834;8.732;2022-09-29T03:48:55;7.15;;;4.30;;
33830;SDS011;20137;48.834;8.732;2022-09-29T03:51:21;6.88;;;3.72;;
33830;SDS011;20137;48.834;8.732;2022-09-29T03:53:47;4.70;;;2.92;;
33830;SDS011;20137;48.834;8.732;2022-09-29T03:56:13;7.20;;;2.78;;
33830;SDS011;20137;48.834;8.732;2022-09-29T03:58:39;8.07;;;2.60;;
33830;SDS011;20137;48.834;8.732;2022-09-29T04:01:05;5.93;;;2.53;;
33830;SDS011;20137;48.834;8.732;2022-09-29T04:03:31;7.75;;;2.63;;
33830;SDS011;20137;48.834;8.732;2022-09-29T04:05:57;9.00;;;3.17;;
33830;SDS011;20137;48.834;8.732;2022-09-29T04:08:22;5.47;;;2.25;;
33830;SDS011;20137;48.834;8.732;2022-09-29T04:10:48;4.43;;;2.83;;
33830;SDS011;20137;48.834;8.732;2022-09-29T04:13:14;6.38;;;2.65;;
33830;SDS011;20137;48.834;8.732;2022-09-29T04:15:40;6.95;;;2.60;;
33830;SDS011;20137;48.834;8.732;2022-09-29T04:18:06;5.32;;;2.38;;
33830;SDS011;20137;48.834;8.732;2022-09-29T04:20:32;4.85;;;2.35;;
33830;SDS011;20137;48.834;8.732;2022-09-29T04:22:58;8.15;;;2.78;;
33830;SDS011;20137;48.834;8.732;2022-09-29T04:25:25;10.73;;;5.63;;
33830;SDS011;20137;48.834;8.732;2022-09-29T04:27:52;30.45;;;14.90;;
33830;SDS011;20137;48.834;8.732;2022-09-29T04:30:18;16.17;;;6.30;;
33830;SDS011;20137;48.834;8.732;2022-09-29T04:32:43;10.18;;;4.47;;
33830;SDS011;20137;48.834;8.732;2022-09-29T04:35:09;11.35;;;3.72;;
33830;SDS011;20137;48.834;8.732;2022-09-29T04:37:35;8.20;;;4.65;;
33830;SDS011;20137;48.834;8.732;2022-09-29T04:40:01;7.10;;;4.00;;
33830;SDS011;20137;48.834;8.732;2022-09-29T04:42:29;9.13;;;4.70;;
33830;SDS011;20137;48.834;8.732;2022-09-29T04:44:55;10.73;;;4.43;;
33830;SDS011;20137;48.834;8.732;2022-09-29T04:47:21;7.22;;;2.95;;
33830;SDS011;20137;48.834;8.732;2022-09-29T04:49:47;9.75;;;3.03;;
33830;SDS011;20137;48.834;8.732;2022-09-29T04:52:13;10.73;;;3.78;;
33830;SDS011;20137;48.834;8.732;2022-09-29T04:54:38;5.63;;;3.40;;
33830;SDS011;20137;48.834;8.732;2022-09-29T04:57:04;7.65;;;3.60;;
33830;SDS011;20137;48.834;8.732;2022-09-29T04:59:30;10.05;;;3.80;;
33830;SDS011;20137;48.834;8.732;2022-09-29T05:01:56;6.13;;;4.50;;
33830;SDS011;20137;48.834;8.732;2022-09-29T05:04:22;8.05;;;4.93;;
33830;SDS011;20137;48.834;8.732;2022-09-29T05:06:48;8.82;;;3.95;;
33830;SDS011;20137;48.834;8.732;2022-09-29T05:09:13;8.57;;;2.90;;
33830;SDS011;20137;48.834;8.732;2022-09-29T05:11:39;5.20;;;3.05;;
33830;SDS011;20137;48.834;8.732;2022-09-29T05:14:05;6.40;;;2.63;;
33830;SDS011;20137;48.834;8.732;2022-09-29T05:16:31;7.70;;;3.40;;
33830;SDS011;20137;48.834;8.732;2022-09-29T05:18:56;9.07;;;3.60;;
33830;SDS011;20137;48.834;8.732;2022-09-29T05:21:22;4.35;;;2.83;;
33830;SDS011;20137;48.834;8.732;2022-09-29T05:23:48;7.03;;;3.70;;
33830;SDS011;20137;48.834;8.732;2022-09-29T05:26:14;8.60;;;3.90;;
33830;SDS011;20137;48.834;8.732;2022-09-29T05:28:43;6.65;;;4.03;;
33830;SDS011;20137;48.834;8.732;2022-09-29T05:31:10;5.90;;;3.50;;
33830;SDS011;20137;48.834;8.732;2022-09-29T05:33:36;10.35;;;3.50;;
33830;SDS011;20137;48.834;8.732;2022-09-29T05:36:03;6.82;;;3.55;;
33830;SDS011;20137;48.834;8.732;2022-09-29T05:38:31;6.43;;;3.65;;
33830;SDS011;20137;48.834;8.732;2022-09-29T05:40:57;8.02;;;3.25;;
33830;SDS011;20137;48.834;8.732;2022-09-29T05:43:23;4.10;;;3.10;;
33830;SDS011;20137;48.834;8.732;2022-09-29T05:45:49;4.13;;;3.33;;
33830;SDS011;20137;48.834;8.732;2022-09-29T05:48:15;8.32;;;4.68;;
33830;SDS011;20137;48.834;8.732;2022-09-29T05:50:42;9.32;;;4.72;;
33830;SDS011;20137;48.834;8.732;2022-09-29T05:53:08;8.35;;;4.03;;
33830;SDS011;20137;48.834;8.732;2022-09-29T05:55:35;6.95;;;3.88;;
33830;SDS011;20137;48.834;8.732;2022-09-29T05:58:02;8.38;;;4.45;;
33830;SDS011;20137;48.834;8.732;2022-09-29T06:00:29;15.40;;;5.80;;
33830;SDS011;20137;48.834;8.732;2022-09-29T06:02:57;30.25;;;12.40;;
33830;SDS011;20137;48.834;8.732;2022-09-29T06:05:26;28.27;;;11.80;;
33830;SDS011;20137;48.834;8.732;2022-09-29T06:07:53;29.60;;;11.82;;
33830;SDS011;20137;48.834;8.732;2022-09-29T06:10:19;29.65;;;13.30;;
33830;SDS011;20137;48.834;8.732;2022-09-29T06:12:45;28.50;;;12.63;;
33830;SDS011;20137;48.834;8.732;2022-09-29T06:15:11;33.33;;;13.13;;
33830;SDS011;20137;48.834;8.732;2022-09-29T06:17:37;32.30;;;12.00;;
33830;SDS011;20137;48.834;8.732;2022-09-29T06:20:03;24.10;;;11.35;;
33830;SDS011;20137;48.834;8.732;2022-09-29T06:22:30;18.70;;;8.25;;
33830;SDS011;20137;48.834;8.732;2022-09-29T06:24:56;12.27;;;6.63;;
33830;SDS011;20137;48.834;8.732;2022-09-29T06:27:22;13.75;;;5.88;;
33830;SDS011;20137;48.834;8.732;2022-09-29T06:29:47;7.40;;;2.88;;
33830;SDS011;20137;48.834;8.732;2022-09-29T06:32:13;4.50;;;2.50;;
33830;SDS011;20137;48.834;8.732;2022-09-29T06:34:39;7.10;;;2.72;;
33830;SDS011;20137;48.834;8.732;2022-09-29T06:37:24;6.90;;;3.00;;
33830;SDS011;20137;48.834;8.732;2022-09-29T06:39:59;5.85;;;3.15;;
33830;SDS011;20137;48.834;8.732;2022-09-29T06:42:28;7.50;;;3.92;;
33830;SDS011;20137;48.834;8.732;2022-09-29T06:44:54;11.45;;;5.05;;
33830;SDS011;20137;48.834;8.732;2022-09-29T06:47:20;6.82;;;4.70;;
33830;SDS011;20137;48.834;8.732;2022-09-29T06:49:46;15.60;;;7.53;;
33830;SDS011;20137;48.834;8.732;2022-09-29T06:52:12;20.55;;;9.02;;
33830;SDS011;20137;48.834;8.732;2022-09-29T06:54:38;21.38;;;8.38;;
33830;SDS011;20137;48.834;8.732;2022-09-29T06:57:04;17.85;;;6.50;;
33830;SDS011;20137;48.834;8.732;2022-09-29T06:59:29;14.18;;;4.03;;
33830;SDS011;20137;48.834;8.732;2022-09-29T07:01:55;11.65;;;4.63;;
33830;SDS011;20137;48.834;8.732;2022-09-29T07:04:21;11.40;;;4.88;;
33830;SDS011;20137;48.834;8.732;2022-09-29T07:06:47;17.88;;;5.93;;
33830;SDS011;20137;48.834;8.732;2022-09-29T07:09:13;13.38;;;3.75;;
33830;SDS011;20137;48.834;8.732;2022-09-29T07:11:42;9.02;;;3.03;;
33830;SDS011;20137;48.834;8.732;2022-09-29T07:14:15;6.10;;;2.97;;
33830;SDS011;20137;48.834;8.732;2022-09-29T07:16:42;9.30;;;3.03;;
33830;SDS011;20137;48.834;8.732;2022-09-29T07:19:12;5.28;;;3.17;;
33830;SDS011;20137;48.834;8.732;2022-09-29T07:21:38;8.80;;;4.90;;
33830;SDS011;20137;48.834;8.732;2022-09-29T07:24:04;8.40;;;4.75;;
33830;SDS011;20137;48.834;8.732;2022-09-29T07:26:30;10.82;;;4.90;;
33830;SDS011;20137;48.834;8.732;2022-09-29T07:28:55;9.75;;;3.95;;
33830;SDS011;20137;48.834;8.732;2022-09-29T07:31:21;9.85;;;4.88;;
33830;SDS011;20137;48.834;8.732;2022-09-29T07:33:48;9.20;;;5.45;;
33830;SDS011;20137;48.834;8.732;2022-09-29T07:36:15;7.72;;;3.72;;
33830;SDS011;20137;48.834;8.732;2022-09-29T07:38:44;8.05;;;3.47;;
33830;SDS011;20137;48.834;8.732;2022-09-29T07:41:14;7.75;;;3.17;;
33830;SDS011;20137;48.834;8.732;2022-09-29T07:43:40;7.00;;;2.97;;
33830;SDS011;20137;48.834;8.732;2022-09-29T07:46:06;7.03;;;3.13;;
33830;SDS011;20137;48.834;8.732;2022-09-29T07:48:33;9.23;;;4.22;;
33830;SDS011;20137;48.834;8.732;2022-09-29T07:51:03;9.13;;;3.45;;
33830;SDS011;20137;48.834;8.732;2022-09-29T07:53:30;7.60;;;3.63;;
33830;SDS011;20137;48.834;8.732;2022-09-29T07:56:04;4.90;;;3.33;;
33830;SDS011;20137;48.834;8.732;2022-09-29T07:58:31;6.75;;;2.83;;
33830;SDS011;20137;48.834;8.732;2022-09-29T08:01:00;7.55;;;2.25;;
33830;SDS011;20137;48.834;8.732;2022-09-29T08:03:28;3.13;;;1.92;;
33830;SDS011;20137;48.834;8.732;2022-09-29T08:05:54;5.80;;;1.67;;
33830;SDS011;20137;48.834;8.732;2022-09-29T08:08:21;8.15;;;2.40;;
33830;SDS011;20137;48.834;8.732;2022-09-29T08:10:47;9.38;;;2.50;;
33830;SDS011;20137;48.834;8.732;2022-09-29T08:13:13;7.90;;;2.60;;
33830;SDS011;20137;48.834;8.732;2022-09-29T08:15:38;5.60;;;2.78;;
33830;SDS011;20137;48.834;8.732;2022-09-29T08:18:04;6.32;;;2.50;;
33830;SDS011;20137;48.834;8.732;2022-09-29T08:20:30;7.22;;;2.10;;
33830;SDS011;20137;48.834;8.732;2022-09-29T08:22:56;3.05;;;1.50;;
33830;SDS011;20137;48.834;8.732;2022-09-29T08:25:22;4.63;;;1.60;;
33830;SDS011;20137;48.834;8.732;2022-09-29T08:27:51;3.85;;;1.40;;
33830;SDS011;20137;48.834;8.732;2022-09-29T08:30:17;5.03;;;1.65;;
33830;SDS011;20137;48.834;8.732;2022-09-29T08:32:49;6.50;;;1.65;;
33830;SDS011;20137;48.834;8.732;2022-09-29T08:35:17;4.47;;;1.83;;
33830;SDS011;20137;48.834;8.732;2022-09-29T08:37:43;7.32;;;2.10;;
33830;SDS011;20137;48.834;8.732;2022-09-29T08:40:09;2.67;;;1.42;;
33830;SDS011;20137;48.834;8.732;2022-09-29T08:45:21;7.30;;;2.03;;
33830;SDS011;20137;48.834;8.732;2022-09-29T08:47:53;5.50;;;1.90;;
33830;SDS011;20137;48.834;8.732;2022-09-29T08:50:41;8.32;;;2.03;;
33830;SDS011;20137;48.834;8.732;2022-09-29T08:53:29;4.53;;;2.00;;
33830;SDS011;20137;48.834;8.732;2022-09-29T08:56:01;3.35;;;1.80;;
33830;SDS011;20137;48.834;8.732;2022-09-29T08:58:30;6.85;;;2.60;;
33830;SDS011;20137;48.834;8.732;2022-09-29T09:06:43;34.15;;;15.02;;
33830;SDS011;20137;48.834;8.732;2022-09-29T09:17:35;3.88;;;1.92;;
33830;SDS011;20137;48.834;8.732;2022-09-29T09:20:33;7.38;;;2.70;;
33830;SDS011;20137;48.834;8.732;2022-09-29T09:25:50;12.48;;;3.08;;
33830;SDS011;20137;48.834;8.732;2022-09-29T09:28:26;5.82;;;2.75;;
33830;SDS011;20137;48.834;8.732;2022-09-29T09:30:57;3.92;;;2.13;;
33830;SDS011;20137;48.834;8.732;2022-09-29T09:33:32;8.55;;;2.40;;
33830;SDS011;20137;48.834;8.732;2022-09-29T09:36:13;7.22;;;2.50;;
33830;SDS011;20137;48.834;8.732;2022-09-29T09:41:15;5.13;;;1.73;;
33830;SDS011;20137;48.834;8.732;2022-09-29T09:46:52;4.82;;;1.92;;
33830;SDS011;20137;48.834;8.732;2022-09-29T09:49:23;5.82;;;1.92;;
33830;SDS011;20137;48.834;8.732;2022-09-29T09:54:40;5.53;;;2.60;;
33830;SDS011;20137;48.834;8.732;2022-09-29T10:00:09;5.85;;;1.95;;
33830;SDS011;20137;48.834;8.732;2022-09-29T10:03:01;3.80;;;1.48;;
33830;SDS011;20137;48.834;8.732;2022-09-29T10:05:51;2.03;;;1.70;;
33830;SDS011;20137;48.834;8.732;2022-09-29T10:08:26;5.70;;;2.13;;
33830;SDS011;20137;48.834;8.732;2022-09-29T10:10:54;6.78;;;1.98;;
33830;SDS011;20137;48.834;8.732;2022-09-29T10:13:21;4.80;;;2.05;;
33830;SDS011;20137;48.834;8.732;2022-09-29T10:16:00;5.63;;;1.90;;
33830;SDS011;20137;48.834;8.732;2022-09-29T10:18:41;5.03;;;2.20;;
33830;SDS011;20137;48.834;8.732;2022-09-29T10:21:34;9.98;;;5.85;;
33830;SDS011;20137;48.834;8.732;2022-09-29T10:24:00;6.82;;;3.22;;
33830;SDS011;20137;48.834;8.732;2022-09-29T10:26:31;6.75;;;2.28;;
33830;SDS011;20137;48.834;8.732;2022-09-29T10:29:27;10.85;;;2.42;;
33830;SDS011;20137;48.834;8.732;2022-09-29T10:32:05;9.30;;;2.00;;
33830;SDS011;20137;48.834;8.732;2022-09-29T10:34:43;6.63;;;1.80;;
33830;SDS011;20137;48.834;8.732;2022-09-29T10:39:45;4.60;;;2.20;;
33830;SDS011;20137;48.834;8.732;2022-09-29T10:44:51;7.15;;;2.17;;
33830;SDS011;20137;48.834;8.732;2022-09-29T10:47:36;7.18;;;2.40;;
33830;SDS011;20137;48.834;8.732;2022-09-29T10:50:06;7.68;;;2.75;;
33830;SDS011;20137;48.834;8.732;2022-09-29T10:52:46;8.55;;;2.10;;
33830;SDS011;20137;48.834;8.732;2022-09-29T10:55:23;7.50;;;2.88;;
33830;SDS011;20137;48.834;8.732;2022-09-29T10:57:51;5.38;;;2.40;;
33830;SDS011;20137;48.834;8.732;2022-09-29T11:02:50;5.40;;;2.22;;
33830;SDS011;20137;48.834;8.732;2022-09-29T11:05:19;14.82;;;2.30;;
33830;SDS011;20137;48.834;8.732;2022-09-29T11:07:50;9.73;;;1.75;;
33830;SDS011;20137;48.834;8.732;2022-09-29T11:10:30;5.03;;;3.00;;
33830;SDS011;20137;48.834;8.732;2022-09-29T11:13:43;4.22;;;2.05;;
33830;SDS011;20137;48.834;8.732;2022-09-29T11:15:50;7.32;;;2.70;;
33830;SDS011;20137;48.834;8.732;2022-09-29T11:18:18;5.05;;;2.83;;
33830;SDS011;20137;48.834;8.732;2022-09-29T11:20:47;6.07;;;1.98;;
33830;SDS011;20137;48.834;8.732;2022-09-29T11:23:23;8.65;;;3.05;;
33830;SDS011;20137;48.834;8.732;2022-09-29T11:50:20;3.83;;;1.92;;
33830;SDS011;20137;48.834;8.732;2022-09-29T11:58:37;4.38;;;1.83;;
33830;SDS011;20137;48.834;8.732;2022-09-29T12:07:03;4.07;;;1.73;;
33830;SDS011;20137;48.834;8.732;2022-09-29T12:12:43;4.30;;;2.05;;
33830;SDS011;20137;48.834;8.732;2022-09-29T12:15:23;4.22;;;1.65;;
33830;SDS011;20137;48.834;8.732;2022-09-29T12:17:58;4.18;;;1.70;;
33830;SDS011;20137;48.834;8.732;2022-09-29T12:20:35;9.10;;;2.47;;
33830;SDS011;20137;48.834;8.732;2022-09-29T12:23:03;4.88;;;1.67;;
33830;SDS011;20137;48.834;8.732;2022-09-29T12:25:36;6.70;;;1.42;;
33830;SDS011;20137;48.834;8.732;2022-09-29T12:28:06;3.55;;;1.15;;
33830;SDS011;20137;48.834;8.732;2022-09-29T12:30:45;3.58;;;1.85;;
33830;SDS011;20137;48.834;8.732;2022-09-29T12:33:21;3.95;;;1.42;;
33830;SDS011;20137;48.834;8.732;2022-09-29T12:39:14;2.40;;;1.25;;
33830;SDS011;20137;48.834;8.732;2022-09-29T12:41:48;3.47;;;1.25;;
33830;SDS011;20137;48.834;8.732;2022-09-29T12:44:31;4.93;;;1.63;;
33830;SDS011;20137;48.834;8.732;2022-09-29T12:47:06;4.97;;;1.40;;
33830;SDS011;20137;48.834;8.732;2022-09-29T12:52:25;4.53;;;1.80;;
33830;SDS011;20137;48.834;8.732;2022-09-29T12:54:59;6.55;;;2.15;;
33830;SDS011;20137;48.834;8.732;2022-09-29T12:57:30;3.17;;;1.45;;
33830;SDS011;20137;48.834;8.732;2022-09-29T13:00:02;5.85;;;1.83;;
33830;SDS011;20137;48.834;8.732;2022-09-29T13:05:42;4.03;;;1.08;;
33830;SDS011;20137;48.834;8.732;2022-09-29T13:10:56;3.15;;;1.10;;
33830;SDS011;20137;48.834;8.732;2022-09-29T13:19:08;4.18;;;1.08;;
33830;SDS011;20137;48.834;8.732;2022-09-29T13:26:41;2.38;;;1.30;;
33830;SDS011;20137;48.834;8.732;2022-09-29T13:29:26;3.25;;;1.40;;
33830;SDS011;20137;48.834;8.732;2022-09-29T13:31:54;5.28;;;1.90;;
33830;SDS011;20137;48.834;8.732;2022-09-29T13:34:31;2.60;;;0.90;;
33830;SDS011;20137;48.834;8.732;2022-09-29T13:37:12;16.75;;;8.48;;
33830;SDS011;20137;48.834;8.732;2022-09-29T13:39:43;8.90;;;4.88;;
33830;SDS011;20137;48.834;8.732;2022-09-29T14:00:59;4.43;;;0.90;;
33830;SDS011;20137;48.834;8.732;2022-09-29T14:03:27;1.10;;;0.70;;
33830;SDS011;20137;48.834;8.732;2022-09-29T14:06:13;1.23;;;0.60;;
33830;SDS011;20137;48.834;8.732;2022-09-29T14:14:23;2.03;;;0.63;;
33830;SDS011;20137;48.834;8.732;2022-09-29T14:19:56;2.38;;;0.60;;
33830;SDS011;20137;48.834;8.732;2022-09-29T14:27:37;1.88;;;0.85;;
33830;SDS011;20137;48.834;8.732;2022-09-29T14:30:36;1.98;;;0.90;;
33830;SDS011;20137;48.834;8.732;2022-09-29T14:33:12;2.72;;;0.90;;
33830;SDS011;20137;48.834;8.732;2022-09-29T14:35:43;1.27;;;0.75;;
33830;SDS011;20137;48.834;8.732;2022-09-29T14:38:28;0.88;;;0.60;;
33830;SDS011;20137;48.834;8.732;2022-09-29T14:41:18;1.40;;;0.60;;
33830;SDS011;20137;48.834;8.732;2022-09-29T14:47:40;2.72;;;0.90;;
33830;SDS011;20137;48.834;8.732;2022-09-29T15:01:27;2.80;;;1.20;;
33830;SDS011;20137;48.834;8.732;2022-09-29T15:04:03;6.10;;;0.80;;
33830;SDS011;20137;48.834;8.732;2022-09-29T15:06:31;2.65;;;0.90;;
33830;SDS011;20137;48.834;8.732;2022-09-29T15:08:58;2.75;;;1.10;;
33830;SDS011;20137;48.834;8.732;2022-09-29T15:11:28;2.92;;;1.20;;
33830;SDS011;20137;48.834;8.732;2022-09-29T15:14:23;4.35;;;1.45;;
33830;SDS011;20137;48.834;8.732;2022-09-29T15:25:55;33.03;;;13.98;;
33830;SDS011;20137;48.834;8.732;2022-09-29T15:31:02;7.30;;;1.27;;
33830;SDS011;20137;48.834;8.732;2022-09-29T15:33:30;6.22;;;1.45;;
33830;SDS011;20137;48.834;8.732;2022-09-29T15:36:04;2.08;;;1.10;;
33830;SDS011;20137;48.834;8.732;2022-09-29T15:46:21;3.58;;;1.40;;
33830;SDS011;20137;48.834;8.732;2022-09-29T15:51:40;3.20;;;1.65;;
33830;SDS011;20137;48.834;8.732;2022-09-29T15:54:09;3.85;;;1.77;;
33830;SDS011;20137;48.834;8.732;2022-09-29T15:56:36;9.18;;;1.77;;
33830;SDS011;20137;48.834;8.732;2022-09-29T15:59:42;3.85;;;1.70;;
33830;SDS011;20137;48.834;8.732;2022-09-29T16:02:20;3.95;;;1.55;;
33830;SDS011;20137;48.834;8.732;2022-09-29T16:04:55;3.78;;;1.85;;
33830;SDS011;20137;48.834;8.732;2022-09-29T16:07:28;7.53;;;1.65;;
33830;SDS011;20137;48.834;8.732;2022-09-29T16:09:57;3.60;;;1.70;;
33830;SDS011;20137;48.834;8.732;2022-09-29T16:12:57;4.72;;;1.95;;
33830;SDS011;20137;48.834;8.732;2022-09-29T16:15:41;6.03;;;1.88;;
33830;SDS011;20137;48.834;8.732;2022-09-29T16:18:18;2.72;;;1.70;;
33830;SDS011;20137;48.834;8.732;2022-09-29T16:20:49;2.13;;;1.52;;
33830;SDS011;20137;48.834;8.732;2022-09-29T16:28:33;4.25;;;1.75;;
33830;SDS011;20137;48.834;8.732;2022-09-29T16:31:04;4.40;;;1.92;;
33830;SDS011;20137;48.834;8.732;2022-09-29T16:33:44;5.70;;;1.90;;
33830;SDS011;20137;48.834;8.732;2022-09-29T16:36:19;4.82;;;1.60;;
33830;SDS011;20137;48.834;8.732;2022-09-29T16:38:51;4.07;;;1.70;;
33830;SDS011;20137;48.834;8.732;2022-09-29T16:41:29;4.85;;;2.25;;
33830;SDS011;20137;48.834;8.732;2022-09-29T16:46:51;5.60;;;2.10;;
33830;SDS011;20137;48.834;8.732;2022-09-29T16:49:30;6.97;;;2.42;;
33830;SDS011;20137;48.834;8.732;2022-09-29T16:52:01;10.20;;;2.30;;
33830;SDS011;20137;48.834;8.732;2022-09-29T16:54:43;6.22;;;2.95;;
33830;SDS011;20137;48.834;8.732;2022-09-29T17:00:15;8.27;;;2.65;;
33830;SDS011;20137;48.834;8.732;2022-09-29T17:02:40;8.88;;;2.90;;
33830;SDS011;20137;48.834;8.732;2022-09-29T17:05:05;6.22;;;2.40;;
33830;SDS011;20137;48.834;8.732;2022-09-29T17:07:31;5.82;;;2.00;;
33830;SDS011;20137;48.834;8.732;2022-09-29T17:10:05;12.77;;;7.68;;
33830;SDS011;20137;48.834;8.732;2022-09-29T17:12:33;11.95;;;5.95;;
33830;SDS011;20137;48.834;8.732;2022-09-29T17:14:59;14.48;;;4.38;;
33830;SDS011;20137;48.834;8.732;2022-09-29T17:17:26;6.03;;;3.58;;
33830;SDS011;20137;48.834;8.732;2022-09-29T17:19:53;5.43;;;2.90;;
33830;SDS011;20137;48.834;8.732;2022-09-29T17:22:24;7.95;;;2.17;;
33830;SDS011;20137;48.834;8.732;2022-09-29T17:24:56;6.93;;;3.25;;
33830;SDS011;20137;48.834;8.732;2022-09-29T17:27:22;7.43;;;3.00;;
33830;SDS011;20137;48.834;8.732;2022-09-29T17:30:08;10.80;;;6.13;;
33830;SDS011;20137;48.834;8.732;2022-09-29T17:32:34;7.35;;;4.72;;
33830;SDS011;20137;48.834;8.732;2022-09-29T17:35:01;6.15;;;2.70;;
33830;SDS011;20137;48.834;8.732;2022-09-29T17:37:27;11.48;;;3.20;;
33830;SDS011;20137;48.834;8.732;2022-09-29T17:39:53;6.75;;;3.42;;
33830;SDS011;20137;48.834;8.732;2022-09-29T17:42:20;11.02;;;5.72;;
33830;SDS011;20137;48.834;8.732;2022-09-29T17:44:49;12.40;;;9.45;;
33830;SDS011;20137;48.834;8.732;2022-09-29T17:47:16;16.10;;;8.43;;
33830;SDS011;20137;48.834;8.732;2022-09-29T17:49:42;21.67;;;12.93;;
33830;SDS011;20137;48.834;8.732;2022-09-29T17:52:08;15.93;;;8.48;;
33830;SDS011;20137;48.834;8.732;2022-09-29T17:54:39;17.42;;;8.90;;
33830;SDS011;20137;48.834;8.732;2022-09-29T17:57:05;12.10;;;7.75;;
33830;SDS011;20137;48.834;8.732;2022-09-29T17:59:33;11.02;;;5.43;;
33830;SDS011;20137;48.834;8.732;2022-09-29T18:02:08;10.13;;;5.80;;
33830;SDS011;20137;48.834;8.732;2022-09-29T18:04:37;9.50;;;4.68;;
33830;SDS011;20137;48.834;8.732;2022-09-29T18:07:05;7.82;;;4.65;;
33830;SDS011;20137;48.834;8.732;2022-09-29T18:09:32;8.02;;;4.97;;
33830;SDS011;20137;48.834;8.732;2022-09-29T18:12:01;7.60;;;4.88;;
33830;SDS011;20137;48.834;8.732;2022-09-29T18:14:27;10.77;;;6.45;;
33830;SDS011;20137;48.834;8.732;2022-09-29T18:16:53;6.38;;;4.68;;
33830;SDS011;20137;48.834;8.732;2022-09-29T18:19:20;9.93;;;5.22;;
33830;SDS011;20137;48.834;8.732;2022-09-29T18:21:46;12.40;;;5.80;;
33830;SDS011;20137;48.834;8.732;2022-09-29T18:24:11;8.75;;;5.57;;
33830;SDS011;20137;48.834;8.732;2022-09-29T18:26:38;7.32;;;4.63;;
33830;SDS011;20137;48.834;8.732;2022-09-29T18:29:16;7.15;;;5.15;;
33830;SDS011;20137;48.834;8.732;2022-09-29T18:31:43;11.38;;;7.68;;
33830;SDS011;20137;48.834;8.732;2022-09-29T18:34:11;11.07;;;4.95;;
33830;SDS011;20137;48.834;8.732;2022-09-29T18:36:40;6.60;;;4.55;;
33830;SDS011;20137;48.834;8.732;2022-09-29T18:39:06;9.00;;;5.25;;
33830;SDS011;20137;48.834;8.732;2022-09-29T18:41:32;6.47;;;4.45;;
33830;SDS011;20137;48.834;8.732;2022-09-29T18:43:58;7.60;;;5.20;;
33830;SDS011;20137;48.834;8.732;2022-09-29T18:46:24;5.60;;;3.33;;
33830;SDS011;20137;48.834;8.732;2022-09-29T18:48:50;10.95;;;5.88;;